createdAt,value
2019-03-11T00:02:01.838Z,95131.57
2019-03-11T00:05:09.419Z,95134.26
2019-03-11T00:08:16.596Z,95147.89
2019-03-11T00:11:23.775Z,95146.21
2019-03-11T00:14:31.160Z,95150.68
2019-03-11T00:17:38.553Z,95151.06
2019-03-11T00:20:46.557Z,95154.08
2019-03-11T00:23:54.061Z,95163.60
2019-03-11T00:27:01.338Z,95168.37
2019-03-11T00:30:09.523Z,95166.61
2019-03-11T00:33:16.699Z,95176.59
2019-03-11T00:36:24.080Z,95177.76
2019-03-11T00:39:31.703Z,95177.53
2019-03-11T00:45:54.758Z,95189.28
2019-03-11T00:49:02.337Z,95178.11
2019-03-11T00:52:09.630Z,95191.61
2019-03-11T00:55:16.808Z,95189.84
2019-03-11T00:58:23.987Z,95183.16
2019-03-11T01:01:31.262Z,95188.55
2019-03-11T01:04:38.563Z,95183.02
2019-03-11T01:07:46.003Z,95187.81
2019-03-11T01:10:53.399Z,95193.48
2019-03-11T01:14:04.477Z,95196.91
2019-03-11T01:17:12.071Z,95194.13
2019-03-11T01:20:19.877Z,95195.44
2019-03-11T01:23:27.483Z,95181.53
2019-03-11T01:26:34.975Z,95190.52
2019-03-11T01:29:42.264Z,95188.59
2019-03-11T01:32:50.268Z,95196.52
2019-03-11T01:35:57.960Z,95187.81
2019-03-11T01:39:06.496Z,95185.87
2019-03-11T01:42:14.302Z,95174.85
2019-03-11T01:45:21.712Z,95175.13
2019-03-11T01:48:29.083Z,95172.03
2019-03-11T01:51:36.375Z,95166.64
2019-03-11T01:54:43.817Z,95168.27
2019-03-11T01:57:51.089Z,95160.38
2019-03-11T02:00:58.465Z,95160.86
2019-03-11T02:04:05.853Z,95153.12
2019-03-11T02:07:13.446Z,95156.72
2019-03-11T02:10:20.932Z,95160.95
2019-03-11T02:13:28.833Z,95150.60
2019-03-11T02:16:36.437Z,95143.32
2019-03-11T02:19:44.280Z,95152.55
2019-03-11T02:22:51.778Z,95139.13
2019-03-11T02:25:59.165Z,95145.92
2019-03-11T02:29:07.164Z,95137.48
2019-03-11T02:32:15.054Z,95142.81
2019-03-11T02:35:27.492Z,95140.41
2019-03-11T02:38:35.269Z,95141.48
2019-03-11T02:41:42.848Z,95141.28
2019-03-11T02:44:50.470Z,95145.06
2019-03-11T02:47:57.843Z,95132.11
2019-03-11T02:51:05.725Z,95140.78
2019-03-11T02:54:13.157Z,95135.97
2019-03-11T02:57:20.613Z,95130.14
2019-03-11T03:00:28.156Z,95134.14
2019-03-11T03:03:40.322Z,95134.88
2019-03-11T03:06:48.292Z,95133.05
2019-03-11T03:09:55.674Z,95129.25
2019-03-11T03:13:03.165Z,95139.80
2019-03-11T03:16:10.555Z,95137.45
2019-03-11T03:19:17.938Z,95124.00
2019-03-11T03:22:25.571Z,95122.73
2019-03-11T03:25:34.948Z,95113.55
2019-03-11T03:28:42.221Z,95110.93
2019-03-11T03:31:50.008Z,95107.32
2019-03-11T03:34:57.567Z,95110.16
2019-03-11T03:38:05.368Z,95099.28
2019-03-11T03:41:13.073Z,95096.75
2019-03-11T03:44:20.847Z,95099.19
2019-03-11T03:47:28.179Z,95094.55
2019-03-11T03:50:37.529Z,95092.63
2019-03-11T03:53:45.092Z,95083.70
2019-03-11T03:56:54.246Z,95084.77
2019-03-11T04:00:01.910Z,95076.54
2019-03-11T04:03:09.411Z,95080.18
2019-03-11T04:06:16.805Z,95077.58
2019-03-11T04:09:24.528Z,95069.88
2019-03-11T04:12:32.244Z,95066.30
2019-03-11T04:15:39.851Z,95061.58
2019-03-11T04:18:55.357Z,95053.45
2019-03-11T04:22:02.831Z,95047.72
2019-03-11T04:25:10.797Z,95033.79
2019-03-11T04:28:18.194Z,95026.17
2019-03-11T04:31:25.679Z,95029.56
2019-03-11T04:34:35.880Z,95030.65
2019-03-11T04:37:42.454Z,95022.93
2019-03-11T04:40:50.036Z,95022.04
2019-03-11T04:43:58.212Z,95028.28
2019-03-11T04:47:05.711Z,95028.18
2019-03-11T04:50:13.753Z,95022.98
2019-03-11T04:53:21.413Z,95019.36
2019-03-11T04:56:29.494Z,95013.19
2019-03-11T04:59:37.162Z,95003.66
2019-03-11T05:02:44.675Z,95013.98
2019-03-11T05:05:52.565Z,95009.27
2019-03-11T05:09:00.226Z,95007.31
2019-03-11T05:12:08.482Z,95013.34
2019-03-11T05:15:16.132Z,94995.13
2019-03-11T05:18:24.608Z,95007.28
2019-03-11T05:21:32.409Z,94989.84
2019-03-11T05:24:39.738Z,94994.20
2019-03-11T05:27:47.259Z,94989.23
2019-03-11T05:30:54.707Z,94989.45
2019-03-11T05:34:02.279Z,94980.56
2019-03-11T05:37:09.459Z,94969.58
2019-03-11T05:40:16.983Z,94971.37
2019-03-11T05:43:24.289Z,94972.41
2019-03-11T05:46:31.565Z,94961.48
2019-03-11T05:49:39.557Z,94956.64
2019-03-11T05:52:46.943Z,94961.75
2019-03-11T05:55:54.429Z,94955.59
2019-03-11T05:59:02.187Z,94940.27
2019-03-11T06:02:09.470Z,94943.05
2019-03-11T06:05:17.205Z,94938.52
2019-03-11T06:08:41.756Z,94932.25
2019-03-11T06:11:49.356Z,94931.84
2019-03-11T06:14:57.721Z,94927.23
2019-03-11T06:18:05.463Z,94918.03
2019-03-11T06:21:32.522Z,94910.43
2019-03-11T06:24:39.827Z,94911.57
2019-03-11T06:27:47.409Z,94906.42
2019-03-11T06:30:54.604Z,94900.06
2019-03-11T06:34:02.904Z,94903.16
2019-03-11T06:37:10.562Z,94913.88
2019-03-11T06:40:18.167Z,94924.13
2019-03-11T06:46:40.314Z,94922.92
2019-03-11T06:49:47.600Z,94920.88
2019-03-11T06:52:55.213Z,94917.17
2019-03-11T06:56:03.011Z,94921.41
2019-03-11T06:59:10.409Z,94919.17
2019-03-11T07:02:17.581Z,94913.38
2019-03-11T07:05:25.017Z,94923.66
2019-03-11T07:08:32.793Z,94905.49
2019-03-11T07:11:40.197Z,94911.67
2019-03-11T07:14:47.380Z,94914.70
2019-03-11T07:17:55.582Z,94908.95
2019-03-11T07:21:03.165Z,94918.94
2019-03-11T07:24:11.409Z,94911.47
2019-03-11T07:27:19.491Z,94907.81
2019-03-11T07:30:26.789Z,94917.23
2019-03-11T07:33:34.416Z,94914.92
2019-03-11T07:36:41.799Z,94931.36
2019-03-11T07:39:49.403Z,94941.73
2019-03-11T07:42:56.796Z,94995.39
2019-03-11T07:46:04.755Z,95005.16
2019-03-11T07:49:12.425Z,95036.71
2019-03-11T07:52:20.287Z,95035.45
2019-03-11T07:55:27.825Z,95028.14
2019-03-11T07:58:35.193Z,95039.63
2019-03-11T08:01:43.205Z,95036.50
2019-03-11T08:04:51.024Z,95034.68
2019-03-11T08:07:58.638Z,95039.63
2019-03-11T08:11:06.103Z,95043.53
2019-03-11T08:14:13.586Z,95047.21
2019-03-11T08:17:20.830Z,95038.59
2019-03-11T08:20:28.281Z,95058.70
2019-03-11T08:23:35.965Z,95043.03
2019-03-11T08:26:43.883Z,95046.95
2019-03-11T08:29:51.698Z,95043.30
2019-03-11T08:32:59.212Z,95032.07
2019-03-11T08:36:06.678Z,95037.28
2019-03-11T08:39:13.950Z,95025.00
2019-03-11T08:42:21.350Z,95036.50
2019-03-11T08:45:29.059Z,95046.68
2019-03-11T08:48:36.745Z,95045.91
2019-03-11T08:51:44.134Z,95069.13
2019-03-11T08:54:52.060Z,95056.61
2019-03-11T08:57:59.858Z,95047.98
2019-03-11T09:01:07.359Z,95058.69
2019-03-11T09:04:15.169Z,95050.07
2019-03-11T09:07:22.973Z,95039.87
2019-03-11T09:10:30.344Z,95040.41
2019-03-11T09:13:38.295Z,95047.73
2019-03-11T09:16:45.874Z,95026.58
2019-03-11T09:19:53.568Z,95013.77
2019-03-11T09:23:00.846Z,95006.43
2019-03-11T09:26:08.462Z,95014.25
2019-03-11T09:29:16.479Z,95023.12
2019-03-11T09:32:24.023Z,95042.98
2019-03-11T09:35:31.568Z,95063.09
2019-03-11T09:38:39.436Z,95074.84
2019-03-11T09:41:46.814Z,95077.94
2019-03-11T09:44:54.349Z,95061.45
2019-03-11T09:48:02.235Z,95042.81
2019-03-11T09:51:09.908Z,95036.73
2019-03-11T09:54:17.187Z,95039.31
2019-03-11T09:57:24.816Z,95051.09
2019-03-11T10:00:32.419Z,95060.96
2019-03-11T10:03:39.977Z,95057.25
2019-03-11T10:06:47.754Z,95061.06
2019-03-11T10:09:55.131Z,95069.76
2019-03-11T10:13:02.469Z,95083.47
2019-03-11T10:16:09.716Z,95078.33
2019-03-11T10:19:17.425Z,95097.76
2019-03-11T10:22:25.328Z,95120.58
2019-03-11T10:25:33.030Z,95122.44
2019-03-11T10:28:40.934Z,95137.89
2019-03-11T10:31:48.222Z,95135.30
2019-03-11T10:34:55.718Z,95163.83
2019-03-11T10:38:03.454Z,95169.47
2019-03-11T10:41:11.191Z,95166.61
2019-03-11T10:44:18.976Z,95167.66
2019-03-11T10:47:26.558Z,95168.17
2019-03-11T10:50:34.089Z,95178.64
2019-03-11T10:53:41.477Z,95176.27
2019-03-11T10:56:48.969Z,95174.44
2019-03-11T10:59:56.650Z,95172.36
2019-03-11T11:03:04.630Z,95174.45
2019-03-11T11:06:12.787Z,95185.38
2019-03-11T11:09:20.456Z,95193.72
2019-03-11T11:12:27.979Z,95193.50
2019-03-11T11:15:35.356Z,95194.97
2019-03-11T11:18:43.059Z,95188.46
2019-03-11T11:21:50.456Z,95195.53
2019-03-11T11:24:57.986Z,95193.25
2019-03-11T11:28:05.879Z,95186.34
2019-03-11T11:31:13.322Z,95178.77
2019-03-11T11:34:21.121Z,95179.82
2019-03-11T11:37:28.660Z,95175.60
2019-03-11T11:40:36.173Z,95178.27
2019-03-11T11:43:43.757Z,95190.44
2019-03-11T11:46:51.329Z,95182.09
2019-03-11T11:49:58.919Z,95182.70
2019-03-11T11:53:06.327Z,95188.92
2019-03-11T11:56:14.014Z,95189.55
2019-03-11T11:59:22.082Z,95189.31
2019-03-11T12:02:29.812Z,95164.95
2019-03-11T12:05:37.560Z,95163.27
2019-03-11T12:08:45.147Z,95160.97
2019-03-11T12:11:53.053Z,95150.49
2019-03-11T12:15:00.575Z,95141.50
2019-03-11T12:18:08.323Z,95145.30
2019-03-11T12:21:16.118Z,95145.67
2019-03-11T12:24:23.550Z,95151.39
2019-03-11T12:27:31.025Z,95153.65
2019-03-11T12:30:39.278Z,95151.31
2019-03-11T12:33:46.662Z,95134.16
2019-03-11T12:36:53.954Z,95134.08
2019-03-11T12:40:01.505Z,95128.97
2019-03-11T12:43:28.910Z,95125.89
2019-03-11T12:46:36.287Z,95124.07
2019-03-11T12:49:43.684Z,95113.76
2019-03-11T12:52:51.192Z,95106.52
2019-03-11T12:55:59.093Z,95115.58
2019-03-11T12:59:07.109Z,95115.54
2019-03-11T13:02:14.401Z,95108.02
2019-03-11T13:05:22.311Z,95103.73
2019-03-11T13:08:31.326Z,95101.69
2019-03-11T13:11:38.839Z,95104.45
2019-03-11T13:14:46.452Z,95101.92
2019-03-11T13:17:54.077Z,95099.41
2019-03-11T13:21:13.399Z,95098.19
2019-03-11T13:24:20.875Z,95092.80
2019-03-11T13:27:28.155Z,95090.72
2019-03-11T13:30:35.492Z,95092.59
2019-03-11T13:33:43.280Z,95097.00
2019-03-11T13:36:51.161Z,95099.97
2019-03-11T13:39:58.816Z,95101.52
2019-03-11T13:43:06.899Z,95111.59
2019-03-11T13:46:15.130Z,95109.90
2019-03-11T13:49:22.970Z,95113.44
2019-03-11T13:52:31.300Z,95109.39
2019-03-11T13:55:38.845Z,95113.13
2019-03-11T13:58:46.733Z,95114.58
2019-03-11T14:01:54.569Z,95118.17
2019-03-11T14:05:02.261Z,95122.41
2019-03-11T14:08:11.764Z,95131.48
2019-03-11T14:11:19.650Z,95125.23
2019-03-11T14:14:27.255Z,95128.49
2019-03-11T14:17:35.398Z,95133.90
2019-03-11T14:20:43.046Z,95146.74
2019-03-11T14:23:50.627Z,95154.70
2019-03-11T14:26:58.217Z,95163.05
2019-03-11T14:30:07.787Z,95171.39
2019-03-11T14:33:15.465Z,95188.88
2019-03-11T14:36:23.343Z,95200.31
2019-03-11T14:39:31.130Z,95214.33
2019-03-11T14:42:38.556Z,95215.44
2019-03-11T14:45:46.239Z,95224.70
2019-03-11T14:48:53.539Z,95220.37
2019-03-11T14:52:01.398Z,95213.31
2019-03-11T14:55:08.954Z,95213.06
2019-03-11T14:58:17.457Z,95219.83
2019-03-11T15:01:24.993Z,95210.83
2019-03-11T15:04:35.253Z,95208.91
2019-03-11T15:07:42.626Z,95217.37
2019-03-11T15:10:49.941Z,95225.21
2019-03-11T15:13:57.804Z,95216.08
2019-03-11T15:17:05.408Z,95218.20
2019-03-11T15:20:13.832Z,95217.08
2019-03-11T15:23:21.652Z,95219.50
2019-03-11T15:26:29.904Z,95223.48
2019-03-11T15:29:37.848Z,95226.50
2019-03-11T15:32:45.636Z,95226.90
2019-03-11T15:35:57.859Z,95244.72
2019-03-11T15:39:06.243Z,95239.25
2019-03-11T15:42:13.806Z,95243.44
2019-03-11T15:45:21.444Z,95257.20
2019-03-11T15:48:29.171Z,95255.03
2019-03-11T15:51:37.383Z,95265.59
2019-03-11T15:54:45.453Z,95275.14
2019-03-11T15:57:53.447Z,95295.20
2019-03-11T16:01:01.314Z,95301.02
2019-03-11T16:04:09.157Z,95315.66
2019-03-11T16:07:17.684Z,95323.23
2019-03-11T16:10:25.689Z,95321.92
2019-03-11T16:13:36.390Z,95314.83
2019-03-11T16:16:45.601Z,95299.70
2019-03-11T16:19:53.737Z,95303.57
2019-03-11T16:23:02.288Z,95289.98
2019-03-11T16:26:11.418Z,95293.83
2019-03-11T16:29:20.046Z,95291.78
2019-03-11T16:32:29.690Z,95299.88
2019-03-11T16:35:40.050Z,95326.27
2019-03-11T16:38:48.195Z,95340.19
2019-03-11T16:41:56.953Z,95348.57
2019-03-11T16:45:05.743Z,95340.67
2019-03-11T16:48:13.912Z,95352.61
2019-03-11T16:51:22.595Z,95351.37
2019-03-11T16:54:30.633Z,95355.80
2019-03-11T16:57:39.113Z,95370.42
2019-03-11T17:00:47.783Z,95366.55
2019-03-11T17:03:55.706Z,95361.32
2019-03-11T17:07:04.121Z,95380.61
2019-03-11T17:10:12.502Z,95384.23
2019-03-11T17:13:21.066Z,95372.77
2019-03-11T17:16:29.066Z,95386.02
2019-03-11T17:19:36.801Z,95384.44
2019-03-11T17:22:44.712Z,95383.39
2019-03-11T17:25:52.918Z,95382.06
2019-03-11T17:29:01.697Z,95387.34
2019-03-11T17:32:11.072Z,95390.73
2019-03-11T17:35:18.890Z,95394.91
2019-03-11T17:38:27.854Z,95397.35
2019-03-11T17:41:35.937Z,95399.61
2019-03-11T17:44:43.894Z,95406.98
2019-03-11T17:47:53.408Z,95414.21
2019-03-11T17:51:01.195Z,95417.63
2019-03-11T17:54:09.340Z,95428.81
2019-03-11T17:57:18.684Z,95432.98
2019-03-11T18:00:29.046Z,95438.32
2019-03-11T18:03:37.193Z,95447.56
2019-03-11T18:06:45.126Z,95448.95
2019-03-11T18:09:53.249Z,95452.98
2019-03-11T18:13:01.414Z,95451.13
2019-03-11T18:16:09.730Z,95454.66
2019-03-11T18:19:17.584Z,95453.80
2019-03-11T18:22:25.669Z,95464.34
2019-03-11T18:25:33.295Z,95461.73
2019-03-11T18:28:41.084Z,95467.26
2019-03-11T18:31:48.788Z,95478.33
2019-03-11T18:34:56.759Z,95474.63
2019-03-11T18:38:05.036Z,95478.73
2019-03-11T18:41:13.364Z,95478.45
2019-03-11T18:44:21.281Z,95487.87
2019-03-11T18:47:28.909Z,95484.98
2019-03-11T18:50:36.852Z,95494.33
2019-03-11T18:53:44.818Z,95491.30
2019-03-11T18:56:52.306Z,95491.17
2019-03-11T19:00:00.424Z,95489.05
2019-03-11T19:03:08.409Z,95495.63
2019-03-11T19:06:16.340Z,95492.96
2019-03-11T19:09:23.708Z,95493.92
2019-03-11T19:12:31.166Z,95494.44
2019-03-11T19:15:38.917Z,95498.90
2019-03-11T19:18:46.337Z,95499.34
2019-03-11T19:21:54.214Z,95504.77
2019-03-11T19:25:02.014Z,95498.55
2019-03-11T19:28:09.812Z,95502.61
2019-03-11T19:31:17.869Z,95509.13
2019-03-11T19:34:25.251Z,95510.03
2019-03-11T19:37:33.041Z,95509.06
2019-03-11T19:40:40.757Z,95515.71
2019-03-11T19:43:48.801Z,95513.80
2019-03-11T19:46:56.827Z,95515.66
2019-03-11T19:50:07.123Z,95512.91
2019-03-11T19:53:14.713Z,95520.30
2019-03-11T19:56:22.281Z,95522.67
2019-03-11T19:59:30.204Z,95519.65
2019-03-11T20:02:38.312Z,95513.84
2019-03-11T20:05:45.994Z,95517.83
2019-03-11T20:08:53.697Z,95525.08
2019-03-11T20:12:02.178Z,95524.34
2019-03-11T20:15:10.777Z,95520.09
2019-03-11T20:18:18.509Z,95517.55
2019-03-11T20:21:26.831Z,95527.48
2019-03-11T20:24:34.875Z,95524.76
2019-03-11T20:27:42.572Z,95518.47
2019-03-11T20:30:50.327Z,95520.61
2019-03-11T20:33:58.219Z,95520.42
2019-03-11T20:37:06.075Z,95517.09
2019-03-11T20:40:13.869Z,95525.20
2019-03-11T20:43:22.062Z,95534.77
2019-03-11T20:46:29.827Z,95531.38
2019-03-11T20:49:38.089Z,95532.91
2019-03-11T20:52:46.014Z,95520.64
2019-03-11T20:55:53.695Z,95526.16
2019-03-11T20:59:01.363Z,95536.98
2019-03-11T21:02:28.476Z,95533.54
2019-03-11T21:05:36.357Z,95533.86
2019-03-11T21:08:45.587Z,95538.69
2019-03-11T21:11:54.752Z,95543.19
2019-03-11T21:15:02.936Z,95546.23
2019-03-11T21:18:10.370Z,95550.66
2019-03-11T21:21:18.001Z,95548.25
2019-03-11T21:24:25.551Z,95552.72
2019-03-11T21:27:33.687Z,95557.77
2019-03-11T21:30:41.240Z,95569.05
2019-03-11T21:33:58.322Z,95573.64
2019-03-11T21:36:58.540Z,95569.73
2019-03-11T21:40:08.193Z,95577.66
2019-03-11T21:43:16.014Z,95566.91
2019-03-11T21:46:23.270Z,95564.65
2019-03-11T21:49:31.215Z,95573.36
2019-03-11T21:52:39.016Z,95557.70
2019-03-11T21:55:46.478Z,95551.05
2019-03-11T21:58:53.924Z,95558.93
2019-03-11T22:02:01.384Z,95560.67
2019-03-11T22:05:08.955Z,95545.80
2019-03-11T22:08:16.502Z,95555.60
2019-03-11T22:11:24.562Z,95552.86
2019-03-11T22:14:32.670Z,95557.30
2019-03-11T22:17:41.195Z,95549.33
2019-03-11T22:20:48.917Z,95555.50
2019-03-11T22:23:56.238Z,95554.52
2019-03-11T22:27:03.723Z,95558.92
2019-03-11T22:30:14.843Z,95561.17
2019-03-11T22:33:22.234Z,95559.16
2019-03-11T22:36:29.523Z,95560.44
2019-03-11T22:39:37.201Z,95563.30
2019-03-11T22:42:45.051Z,95561.35
2019-03-11T22:45:53.279Z,95557.45
2019-03-11T22:49:00.646Z,95555.33
2019-03-11T22:52:08.768Z,95557.22
2019-03-11T22:55:17.748Z,95556.52
2019-03-11T22:58:25.201Z,95556.75
2019-03-11T23:01:33.004Z,95560.70
2019-03-11T23:04:40.468Z,95550.80
2019-03-11T23:07:48.211Z,95549.99
2019-03-11T23:10:56.057Z,95554.15
2019-03-11T23:14:03.650Z,95551.85
2019-03-11T23:17:10.935Z,95555.75
2019-03-11T23:20:18.330Z,95553.45
2019-03-11T23:23:25.852Z,95550.27
2019-03-11T23:26:33.225Z,95551.62
2019-03-11T23:29:40.515Z,95556.84
2019-03-11T23:32:48.085Z,95547.70
2019-03-11T23:35:55.798Z,95561.03
2019-03-11T23:39:06.192Z,95553.70
2019-03-11T23:42:13.571Z,95561.61
2019-03-11T23:45:21.071Z,95550.37
2019-03-11T23:48:28.922Z,95561.08
2019-03-11T23:51:37.648Z,95566.05
2019-03-11T23:54:45.057Z,95570.03
2019-03-11T23:57:52.634Z,95561.91
